sensor_id;sensor_type;location;lat;lon;timestamp;temperature;humidity
68867;SHT30;56451;44.804;20.476;2023-03-29T00:01:29;5.74;51.59
68867;SHT30;56451;44.804;20.476;2023-03-29T00:03:56;5.77;51.62
68867;SHT30;56451;44.804;20.476;2023-03-29T00:06:22;5.75;51.67
68867;SHT30;56451;44.804;20.476;2023-03-29T00:08:48;5.78;51.85
68867;SHT30;56451;44.804;20.476;2023-03-29T00:11:16;5.74;52.13
68867;SHT30;56451;44.804;20.476;2023-03-29T00:13:42;5.74;52.20
68867;SHT30;56451;44.804;20.476;2023-03-29T00:16:09;5.65;52.48
68867;SHT30;56451;44.804;20.476;2023-03-29T00:18:34;5.62;52.82
68867;SHT30;56451;44.804;20.476;2023-03-29T00:21:00;5.61;52.89
68867;SHT30;56451;44.804;20.476;2023-03-29T00:23:26;5.61;53.07
68867;SHT30;56451;44.804;20.476;2023-03-29T00:25:53;5.58;53.13
68867;SHT30;56451;44.804;20.476;2023-03-29T00:28:19;5.54;53.45
68867;SHT30;56451;44.804;20.476;2023-03-29T00:30:45;5.54;53.55
68867;SHT30;56451;44.804;20.476;2023-03-29T00:33:11;5.51;53.43
68867;SHT30;56451;44.804;20.476;2023-03-29T00:35:40;5.51;53.50
68867;SHT30;56451;44.804;20.476;2023-03-29T00:38:07;5.47;53.67
68867;SHT30;56451;44.804;20.476;2023-03-29T00:40:33;5.43;53.75
68867;SHT30;56451;44.804;20.476;2023-03-29T00:42:59;5.43;53.62
68867;SHT30;56451;44.804;20.476;2023-03-29T00:45:27;5.43;53.51
68867;SHT30;56451;44.804;20.476;2023-03-29T00:48:01;5.43;53.74
68867;SHT30;56451;44.804;20.476;2023-03-29T00:50:32;5.38;53.56
68867;SHT30;56451;44.804;20.476;2023-03-29T00:53:06;5.40;53.95
68867;SHT30;56451;44.804;20.476;2023-03-29T00:55:43;5.38;53.99
68867;SHT30;56451;44.804;20.476;2023-03-29T00:58:13;5.31;54.40
68867;SHT30;56451;44.804;20.476;2023-03-29T01:00:47;5.31;54.33
68867;SHT30;56451;44.804;20.476;2023-03-29T01:03:17;5.34;54.13
68867;SHT30;56451;44.804;20.476;2023-03-29T01:05:54;5.37;54.04
68867;SHT30;56451;44.804;20.476;2023-03-29T01:08:49;5.34;54.03
68867;SHT30;56451;44.804;20.476;2023-03-29T01:11:18;5.33;53.94
68867;SHT30;56451;44.804;20.476;2023-03-29T01:14:05;5.29;53.90
68867;SHT30;56451;44.804;20.476;2023-03-29T01:16:34;5.27;54.02
68867;SHT30;56451;44.804;20.476;2023-03-29T01:19:04;5.23;53.95
68867;SHT30;56451;44.804;20.476;2023-03-29T01:21:36;5.22;53.74
68867;SHT30;56451;44.804;20.476;2023-03-29T01:25:05;5.17;53.69
68867;SHT30;56451;44.804;20.476;2023-03-29T01:30:03;5.15;53.51
68867;SHT30;56451;44.804;20.476;2023-03-29T01:32:38;5.10;53.80
68867;SHT30;56451;44.804;20.476;2023-03-29T01:35:12;5.09;53.83
68867;SHT30;56451;44.804;20.476;2023-03-29T01:37:57;5.12;53.91
68867;SHT30;56451;44.804;20.476;2023-03-29T01:40:24;5.12;53.87
68867;SHT30;56451;44.804;20.476;2023-03-29T01:45:42;5.06;54.28
68867;SHT30;56451;44.804;20.476;2023-03-29T01:50:50;5.06;54.28
68867;SHT30;56451;44.804;20.476;2023-03-29T01:53:41;5.05;54.23
68867;SHT30;56451;44.804;20.476;2023-03-29T01:56:12;5.00;54.51
68867;SHT30;56451;44.804;20.476;2023-03-29T01:58:42;5.03;54.72
68867;SHT30;56451;44.804;20.476;2023-03-29T02:01:10;5.05;54.26
68867;SHT30;56451;44.804;20.476;2023-03-29T02:03:41;5.10;53.99
68867;SHT30;56451;44.804;20.476;2023-03-29T02:06:11;5.13;53.95
68867;SHT30;56451;44.804;20.476;2023-03-29T02:08:39;5.13;53.83
68867;SHT30;56451;44.804;20.476;2023-03-29T02:11:06;5.16;53.66
68867;SHT30;56451;44.804;20.476;2023-03-29T02:13:33;5.13;53.51
68867;SHT30;56451;44.804;20.476;2023-03-29T02:15:59;5.24;53.57
68867;SHT30;56451;44.804;20.476;2023-03-29T02:18:33;5.23;53.58
68867;SHT30;56451;44.804;20.476;2023-03-29T02:21:01;5.23;53.59
68867;SHT30;56451;44.804;20.476;2023-03-29T02:23:31;5.19;53.69
68867;SHT30;56451;44.804;20.476;2023-03-29T02:26:01;5.19;53.72
68867;SHT30;56451;44.804;20.476;2023-03-29T02:28:29;5.12;53.87
68867;SHT30;56451;44.804;20.476;2023-03-29T02:33:45;5.09;54.01
68867;SHT30;56451;44.804;20.476;2023-03-29T02:36:24;5.03;54.24
68867;SHT30;56451;44.804;20.476;2023-03-29T02:38:53;5.05;54.36
68867;SHT30;56451;44.804;20.476;2023-03-29T02:41:21;5.06;54.67
68867;SHT30;56451;44.804;20.476;2023-03-29T02:43:49;5.06;54.97
68867;SHT30;56451;44.804;20.476;2023-03-29T02:46:17;5.06;55.25
68867;SHT30;56451;44.804;20.476;2023-03-29T02:48:45;5.10;55.35
68867;SHT30;56451;44.804;20.476;2023-03-29T02:51:19;5.05;55.31
68867;SHT30;56451;44.804;20.476;2023-03-29T02:53:56;4.95;55.25
68867;SHT30;56451;44.804;20.476;2023-03-29T02:56:24;4.89;55.79
68867;SHT30;56451;44.804;20.476;2023-03-29T02:58:49;4.86;56.20
68867;SHT30;56451;44.804;20.476;2023-03-29T03:01:17;4.93;56.32
68867;SHT30;56451;44.804;20.476;2023-03-29T03:03:45;4.97;55.95
68867;SHT30;56451;44.804;20.476;2023-03-29T03:06:12;4.92;55.82
68867;SHT30;56451;44.804;20.476;2023-03-29T03:08:38;4.92;56.12
68867;SHT30;56451;44.804;20.476;2023-03-29T03:11:04;4.88;56.10
68867;SHT30;56451;44.804;20.476;2023-03-29T03:13:31;4.93;56.01
68867;SHT30;56451;44.804;20.476;2023-03-29T03:15:57;4.93;56.04
68867;SHT30;56451;44.804;20.476;2023-03-29T03:18:23;4.95;56.05
68867;SHT30;56451;44.804;20.476;2023-03-29T03:20:59;4.96;56.19
68867;SHT30;56451;44.804;20.476;2023-03-29T03:23:26;4.93;56.07
68867;SHT30;56451;44.804;20.476;2023-03-29T03:25:53;4.99;56.10
68867;SHT30;56451;44.804;20.476;2023-03-29T03:28:21;4.99;55.93
68867;SHT30;56451;44.804;20.476;2023-03-29T03:30:47;4.99;55.57
68867;SHT30;56451;44.804;20.476;2023-03-29T03:33:33;5.00;55.63
68867;SHT30;56451;44.804;20.476;2023-03-29T03:36:28;4.99;55.57
68867;SHT30;56451;44.804;20.476;2023-03-29T03:38:56;4.99;55.69
68867;SHT30;56451;44.804;20.476;2023-03-29T03:41:22;5.01;55.34
68867;SHT30;56451;44.804;20.476;2023-03-29T03:43:48;5.00;54.90
68867;SHT30;56451;44.804;20.476;2023-03-29T03:46:15;4.93;54.93
68867;SHT30;56451;44.804;20.476;2023-03-29T03:48:44;4.85;55.35
68867;SHT30;56451;44.804;20.476;2023-03-29T03:51:17;4.85;55.07
68867;SHT30;56451;44.804;20.476;2023-03-29T03:53:44;4.86;54.61
68867;SHT30;56451;44.804;20.476;2023-03-29T03:56:13;4.89;54.47
68867;SHT30;56451;44.804;20.476;2023-03-29T03:58:57;4.82;53.99
68867;SHT30;56451;44.804;20.476;2023-03-29T04:01:23;4.73;54.44
68867;SHT30;56451;44.804;20.476;2023-03-29T04:04:02;4.73;54.44
68867;SHT30;56451;44.804;20.476;2023-03-29T04:06:28;4.73;54.63
68867;SHT30;56451;44.804;20.476;2023-03-29T04:09:21;4.71;54.41
68867;SHT30;56451;44.804;20.476;2023-03-29T04:11:58;4.65;54.45
68867;SHT30;56451;44.804;20.476;2023-03-29T04:14:24;4.59;54.16
68867;SHT30;56451;44.804;20.476;2023-03-29T04:16:53;4.61;54.24
68867;SHT30;56451;44.804;20.476;2023-03-29T04:19:43;4.55;54.45
68867;SHT30;56451;44.804;20.476;2023-03-29T04:22:09;4.52;54.80
68867;SHT30;56451;44.804;20.476;2023-03-29T04:24:36;4.55;54.90
68867;SHT30;56451;44.804;20.476;2023-03-29T04:27:31;4.57;55.02
68867;SHT30;56451;44.804;20.476;2023-03-29T04:30:01;4.54;54.77
68867;SHT30;56451;44.804;20.476;2023-03-29T04:32:46;4.51;55.07
68867;SHT30;56451;44.804;20.476;2023-03-29T04:35:12;4.52;54.92
68867;SHT30;56451;44.804;20.476;2023-03-29T04:37:38;4.48;54.73
68867;SHT30;56451;44.804;20.476;2023-03-29T04:40:07;4.44;54.75
68867;SHT30;56451;44.804;20.476;2023-03-29T04:42:46;4.44;54.85
68867;SHT30;56451;44.804;20.476;2023-03-29T04:45:15;4.44;55.06
68867;SHT30;56451;44.804;20.476;2023-03-29T04:48:03;4.42;55.34
68867;SHT30;56451;44.804;20.476;2023-03-29T04:50:29;4.45;54.74
68867;SHT30;56451;44.804;20.476;2023-03-29T04:52:55;4.51;54.35
68867;SHT30;56451;44.804;20.476;2023-03-29T04:55:21;4.45;54.06
68867;SHT30;56451;44.804;20.476;2023-03-29T04:58:07;4.40;54.68
68867;SHT30;56451;44.804;20.476;2023-03-29T05:00:35;4.37;54.68
68867;SHT30;56451;44.804;20.476;2023-03-29T05:03:21;4.34;54.38
68867;SHT30;56451;44.804;20.476;2023-03-29T05:06:09;4.16;54.30
68867;SHT30;56451;44.804;20.476;2023-03-29T05:08:38;4.11;54.24
68867;SHT30;56451;44.804;20.476;2023-03-29T05:11:23;4.02;54.71
68867;SHT30;56451;44.804;20.476;2023-03-29T05:13:51;4.03;55.08
68867;SHT30;56451;44.804;20.476;2023-03-29T05:16:17;3.99;54.95
68867;SHT30;56451;44.804;20.476;2023-03-29T05:18:44;3.97;55.55
68867;SHT30;56451;44.804;20.476;2023-03-29T05:21:10;3.89;55.12
68867;SHT30;56451;44.804;20.476;2023-03-29T05:23:38;3.93;54.86
68867;SHT30;56451;44.804;20.476;2023-03-29T05:26:23;3.99;54.20
68867;SHT30;56451;44.804;20.476;2023-03-29T05:28:53;4.06;53.83
68867;SHT30;56451;44.804;20.476;2023-03-29T05:31:19;4.16;53.66
68867;SHT30;56451;44.804;20.476;2023-03-29T05:33:49;4.23;53.07
68867;SHT30;56451;44.804;20.476;2023-03-29T05:36:17;4.23;53.00
68867;SHT30;56451;44.804;20.476;2023-03-29T05:38:46;4.20;53.76
68867;SHT30;56451;44.804;20.476;2023-03-29T05:41:13;4.20;54.14
68867;SHT30;56451;44.804;20.476;2023-03-29T05:43:59;4.21;53.35
68867;SHT30;56451;44.804;20.476;2023-03-29T05:46:26;4.27;53.10
68867;SHT30;56451;44.804;20.476;2023-03-29T05:48:55;4.36;51.17
68867;SHT30;56451;44.804;20.476;2023-03-29T05:51:31;4.45;51.05
68867;SHT30;56451;44.804;20.476;2023-03-29T05:53:58;4.51;50.63
68867;SHT30;56451;44.804;20.476;2023-03-29T05:56:25;4.59;48.75
68867;SHT30;56451;44.804;20.476;2023-03-29T05:58:53;4.61;48.47
68867;SHT30;56451;44.804;20.476;2023-03-29T06:01:22;4.55;48.02
68867;SHT30;56451;44.804;20.476;2023-03-29T06:04:04;4.61;48.77
68867;SHT30;56451;44.804;20.476;2023-03-29T06:06:48;4.65;48.56
68867;SHT30;56451;44.804;20.476;2023-03-29T06:09:14;4.65;48.20
68867;SHT30;56451;44.804;20.476;2023-03-29T06:11:50;4.68;48.58
68867;SHT30;56451;44.804;20.476;2023-03-29T06:14:30;4.71;48.61
68867;SHT30;56451;44.804;20.476;2023-03-29T06:17:14;4.75;48.25
68867;SHT30;56451;44.804;20.476;2023-03-29T06:19:41;4.81;48.12
68867;SHT30;56451;44.804;20.476;2023-03-29T06:22:07;4.75;47.44
68867;SHT30;56451;44.804;20.476;2023-03-29T06:24:33;4.65;47.44
68867;SHT30;56451;44.804;20.476;2023-03-29T06:27:05;4.58;47.49
68867;SHT30;56451;44.804;20.476;2023-03-29T06:29:31;4.62;47.59
68867;SHT30;56451;44.804;20.476;2023-03-29T06:31:57;4.65;47.39
68867;SHT30;56451;44.804;20.476;2023-03-29T06:34:46;4.64;47.77
68867;SHT30;56451;44.804;20.476;2023-03-29T06:37:24;4.61;47.96
68867;SHT30;56451;44.804;20.476;2023-03-29T06:39:59;4.62;48.21
68867;SHT30;56451;44.804;20.476;2023-03-29T06:42:34;4.76;46.26
68867;SHT30;56451;44.804;20.476;2023-03-29T06:45:21;4.83;46.05
68867;SHT30;56451;44.804;20.476;2023-03-29T06:47:49;4.85;45.42
68867;SHT30;56451;44.804;20.476;2023-03-29T06:50:15;4.85;44.85
68867;SHT30;56451;44.804;20.476;2023-03-29T06:52:56;4.85;43.92
68867;SHT30;56451;44.804;20.476;2023-03-29T06:55:23;4.86;44.42
68867;SHT30;56451;44.804;20.476;2023-03-29T06:57:49;4.90;43.89
68867;SHT30;56451;44.804;20.476;2023-03-29T07:00:16;4.97;43.56
68867;SHT30;56451;44.804;20.476;2023-03-29T07:03:20;4.96;44.12
68867;SHT30;56451;44.804;20.476;2023-03-29T07:05:51;4.97;43.19
68867;SHT30;56451;44.804;20.476;2023-03-29T07:08:19;4.97;44.03
68867;SHT30;56451;44.804;20.476;2023-03-29T07:10:52;5.01;44.40
68867;SHT30;56451;44.804;20.476;2023-03-29T07:13:42;5.20;43.74
68867;SHT30;56451;44.804;20.476;2023-03-29T07:16:09;5.31;43.84
68867;SHT30;56451;44.804;20.476;2023-03-29T07:18:47;5.43;43.66
68867;SHT30;56451;44.804;20.476;2023-03-29T07:21:24;5.50;43.02
68867;SHT30;56451;44.804;20.476;2023-03-29T07:23:51;5.55;42.54
68867;SHT30;56451;44.804;20.476;2023-03-29T07:26:17;5.55;42.23
68867;SHT30;56451;44.804;20.476;2023-03-29T07:28:49;5.59;42.54
68867;SHT30;56451;44.804;20.476;2023-03-29T07:31:15;5.62;42.99
68867;SHT30;56451;44.804;20.476;2023-03-29T07:33:47;5.64;42.91
68867;SHT30;56451;44.804;20.476;2023-03-29T07:36:17;5.59;42.91
68867;SHT30;56451;44.804;20.476;2023-03-29T07:38:44;5.61;43.25
68867;SHT30;56451;44.804;20.476;2023-03-29T07:41:15;5.71;43.32
68867;SHT30;56451;44.804;20.476;2023-03-29T07:43:58;5.88;42.95
68867;SHT30;56451;44.804;20.476;2023-03-29T07:46:30;6.01;42.90
68867;SHT30;56451;44.804;20.476;2023-03-29T07:48:56;6.12;42.81
68867;SHT30;56451;44.804;20.476;2023-03-29T07:51:22;6.20;41.82
68867;SHT30;56451;44.804;20.476;2023-03-29T07:53:52;6.29;42.20
68867;SHT30;56451;44.804;20.476;2023-03-29T07:56:37;6.36;41.63
68867;SHT30;56451;44.804;20.476;2023-03-29T07:59:21;6.34;41.79
68867;SHT30;56451;44.804;20.476;2023-03-29T08:01:57;6.32;42.35
68867;SHT30;56451;44.804;20.476;2023-03-29T08:04:34;6.34;42.21
68867;SHT30;56451;44.804;20.476;2023-03-29T08:07:17;6.41;41.06
68867;SHT30;56451;44.804;20.476;2023-03-29T08:09:58;6.41;39.50
68867;SHT30;56451;44.804;20.476;2023-03-29T08:12:39;6.40;40.19
68867;SHT30;56451;44.804;20.476;2023-03-29T08:15:06;6.40;40.19
68867;SHT30;56451;44.804;20.476;2023-03-29T08:17:34;6.44;39.63
68867;SHT30;56451;44.804;20.476;2023-03-29T08:20:07;6.50;40.02
68867;SHT30;56451;44.804;20.476;2023-03-29T08:22:36;6.56;40.45
68867;SHT30;56451;44.804;20.476;2023-03-29T08:25:15;6.63;40.76
68867;SHT30;56451;44.804;20.476;2023-03-29T08:27:45;6.63;40.77
68867;SHT30;56451;44.804;20.476;2023-03-29T08:30:14;6.65;40.65
68867;SHT30;56451;44.804;20.476;2023-03-29T08:32:40;6.73;41.30
68867;SHT30;56451;44.804;20.476;2023-03-29T08:35:08;6.74;41.71
68867;SHT30;56451;44.804;20.476;2023-03-29T08:37:39;6.84;41.81
68867;SHT30;56451;44.804;20.476;2023-03-29T08:40:06;6.89;41.41
68867;SHT30;56451;44.804;20.476;2023-03-29T08:48:54;7.04;40.88
68867;SHT30;56451;44.804;20.476;2023-03-29T08:51:34;6.96;40.90
68867;SHT30;56451;44.804;20.476;2023-03-29T08:54:09;6.96;40.88
68867;SHT30;56451;44.804;20.476;2023-03-29T08:57:06;7.08;40.91
68867;SHT30;56451;44.804;20.476;2023-03-29T08:59:40;7.19;39.94
68867;SHT30;56451;44.804;20.476;2023-03-29T09:02:15;7.20;39.34
68867;SHT30;56451;44.804;20.476;2023-03-29T09:04:43;7.26;39.51
68867;SHT30;56451;44.804;20.476;2023-03-29T09:07:39;7.27;38.94
68867;SHT30;56451;44.804;20.476;2023-03-29T09:10:12;7.32;39.25
68867;SHT30;56451;44.804;20.476;2023-03-29T09:13:15;7.44;38.96
68867;SHT30;56451;44.804;20.476;2023-03-29T09:16:31;7.59;39.15
68867;SHT30;56451;44.804;20.476;2023-03-29T09:21:31;7.70;38.13
68867;SHT30;56451;44.804;20.476;2023-03-29T09:24:12;7.78;38.45
68867;SHT30;56451;44.804;20.476;2023-03-29T09:26:55;7.90;38.57
68867;SHT30;56451;44.804;20.476;2023-03-29T09:29:33;8.06;38.29
68867;SHT30;56451;44.804;20.476;2023-03-29T09:32:21;8.22;37.70
68867;SHT30;56451;44.804;20.476;2023-03-29T09:35:00;8.21;38.04
68867;SHT30;56451;44.804;20.476;2023-03-29T09:37:33;8.29;37.68
68867;SHT30;56451;44.804;20.476;2023-03-29T09:40:03;8.29;37.67
68867;SHT30;56451;44.804;20.476;2023-03-29T09:42:48;8.33;37.66
68867;SHT30;56451;44.804;20.476;2023-03-29T09:45:16;8.28;37.08
68867;SHT30;56451;44.804;20.476;2023-03-29T09:47:54;8.32;37.12
68867;SHT30;56451;44.804;20.476;2023-03-29T09:50:35;8.22;37.58
68867;SHT30;56451;44.804;20.476;2023-03-29T09:53:04;8.21;37.42
68867;SHT30;56451;44.804;20.476;2023-03-29T09:55:33;8.18;37.27
68867;SHT30;56451;44.804;20.476;2023-03-29T09:58:22;8.21;37.39
68867;SHT30;56451;44.804;20.476;2023-03-29T10:00:50;8.25;37.23
68867;SHT30;56451;44.804;20.476;2023-03-29T10:03:24;8.28;37.50
68867;SHT30;56451;44.804;20.476;2023-03-29T10:05:59;8.45;37.13
68867;SHT30;56451;44.804;20.476;2023-03-29T10:08:35;8.53;36.95
68867;SHT30;56451;44.804;20.476;2023-03-29T10:11:07;8.53;37.11
68867;SHT30;56451;44.804;20.476;2023-03-29T10:13:35;8.54;36.84
68867;SHT30;56451;44.804;20.476;2023-03-29T10:16:17;8.67;37.01
68867;SHT30;56451;44.804;20.476;2023-03-29T10:18:44;8.69;36.91
68867;SHT30;56451;44.804;20.476;2023-03-29T10:21:14;8.69;36.93
68867;SHT30;56451;44.804;20.476;2023-03-29T10:23:40;8.83;36.58
68867;SHT30;56451;44.804;20.476;2023-03-29T10:26:16;8.81;36.76
68867;SHT30;56451;44.804;20.476;2023-03-29T10:28:50;8.81;36.66
68867;SHT30;56451;44.804;20.476;2023-03-29T10:31:19;8.81;36.93
68867;SHT30;56451;44.804;20.476;2023-03-29T10:33:51;8.85;36.57
68867;SHT30;56451;44.804;20.476;2023-03-29T10:36:18;8.91;36.51
68867;SHT30;56451;44.804;20.476;2023-03-29T10:38:45;9.00;36.18
68867;SHT30;56451;44.804;20.476;2023-03-29T10:41:11;9.03;36.10
68867;SHT30;56451;44.804;20.476;2023-03-29T10:43:43;9.15;35.98
68867;SHT30;56451;44.804;20.476;2023-03-29T10:46:11;9.22;35.78
68867;SHT30;56451;44.804;20.476;2023-03-29T10:48:46;9.24;35.92
68867;SHT30;56451;44.804;20.476;2023-03-29T10:51:14;9.18;34.86
68867;SHT30;56451;44.804;20.476;2023-03-29T10:53:40;9.17;35.32
68867;SHT30;56451;44.804;20.476;2023-03-29T10:56:25;9.27;35.78
68867;SHT30;56451;44.804;20.476;2023-03-29T11:07:05;9.69;34.50
68867;SHT30;56451;44.804;20.476;2023-03-29T11:09:41;9.69;33.85
68867;SHT30;56451;44.804;20.476;2023-03-29T11:15:13;9.86;33.16
68867;SHT30;56451;44.804;20.476;2023-03-29T11:17:52;9.91;33.23
68867;SHT30;56451;44.804;20.476;2023-03-29T11:20:53;10.03;33.13
68867;SHT30;56451;44.804;20.476;2023-03-29T11:26:23;10.04;32.69
68867;SHT30;56451;44.804;20.476;2023-03-29T11:28:56;10.03;32.97
68867;SHT30;56451;44.804;20.476;2023-03-29T11:31:57;10.08;33.38
68867;SHT30;56451;44.804;20.476;2023-03-29T11:43:04;10.42;33.25
68867;SHT30;56451;44.804;20.476;2023-03-29T11:45:36;10.48;32.58
68867;SHT30;56451;44.804;20.476;2023-03-29T11:48:13;10.54;32.68
68867;SHT30;56451;44.804;20.476;2023-03-29T11:57:01;10.61;32.70
68867;SHT30;56451;44.804;20.476;2023-03-29T11:59:15;10.55;32.73
68867;SHT30;56451;44.804;20.476;2023-03-29T12:01:51;10.51;32.72
68867;SHT30;56451;44.804;20.476;2023-03-29T12:04:31;10.56;32.93
68867;SHT30;56451;44.804;20.476;2023-03-29T12:07:04;10.65;32.69
68867;SHT30;56451;44.804;20.476;2023-03-29T12:09:41;10.72;32.71
68867;SHT30;56451;44.804;20.476;2023-03-29T12:12:18;10.71;32.79
68867;SHT30;56451;44.804;20.476;2023-03-29T12:14:55;10.72;32.77
68867;SHT30;56451;44.804;20.476;2023-03-29T12:17:30;10.72;32.75
68867;SHT30;56451;44.804;20.476;2023-03-29T12:20:10;10.79;32.96
68867;SHT30;56451;44.804;20.476;2023-03-29T12:22:44;10.88;32.92
68867;SHT30;56451;44.804;20.476;2023-03-29T12:25:15;10.91;32.90
68867;SHT30;56451;44.804;20.476;2023-03-29T12:39:18;10.86;33.45
68867;SHT30;56451;44.804;20.476;2023-03-29T12:42:06;10.89;33.20
68867;SHT30;56451;44.804;20.476;2023-03-29T12:44:59;10.91;33.18
68867;SHT30;56451;44.804;20.476;2023-03-29T12:47:36;10.93;33.46
68867;SHT30;56451;44.804;20.476;2023-03-29T12:50:18;11.02;33.23
68867;SHT30;56451;44.804;20.476;2023-03-29T12:52:47;11.03;33.56
68867;SHT30;56451;44.804;20.476;2023-03-29T12:58:40;11.24;33.48
68867;SHT30;56451;44.804;20.476;2023-03-29T13:01:28;11.38;33.91
68867;SHT30;56451;44.804;20.476;2023-03-29T13:09:25;11.45;34.02
68867;SHT30;56451;44.804;20.476;2023-03-29T13:12:10;11.50;33.51
68867;SHT30;56451;44.804;20.476;2023-03-29T13:14:41;11.54;33.42
68867;SHT30;56451;44.804;20.476;2023-03-29T13:17:20;11.61;33.30
68867;SHT30;56451;44.804;20.476;2023-03-29T13:19:57;11.67;33.23
68867;SHT30;56451;44.804;20.476;2023-03-29T13:22:48;11.74;33.18
68867;SHT30;56451;44.804;20.476;2023-03-29T13:36:50;12.10;32.35
68867;SHT30;56451;44.804;20.476;2023-03-29T13:39:22;12.09;32.11
68867;SHT30;56451;44.804;20.476;2023-03-29T13:41:50;12.12;32.48
68867;SHT30;56451;44.804;20.476;2023-03-29T13:44:40;12.18;32.27
68867;SHT30;56451;44.804;20.476;2023-03-29T13:47:14;12.30;32.20
68867;SHT30;56451;44.804;20.476;2023-03-29T13:49:55;12.46;31.86
68867;SHT30;56451;44.804;20.476;2023-03-29T13:52:42;12.58;31.50
68867;SHT30;56451;44.804;20.476;2023-03-29T13:55:16;12.68;31.47
68867;SHT30;56451;44.804;20.476;2023-03-29T14:00:30;12.77;31.24
68867;SHT30;56451;44.804;20.476;2023-03-29T14:02:59;12.84;31.22
68867;SHT30;56451;44.804;20.476;2023-03-29T14:05:30;13.01;30.61
68867;SHT30;56451;44.804;20.476;2023-03-29T14:08:03;13.08;30.74
68867;SHT30;56451;44.804;20.476;2023-03-29T14:10:38;13.15;30.56
68867;SHT30;56451;44.804;20.476;2023-03-29T14:13:05;13.18;30.65
68867;SHT30;56451;44.804;20.476;2023-03-29T14:15:44;13.18;30.77
68867;SHT30;56451;44.804;20.476;2023-03-29T14:18:15;13.18;30.40
68867;SHT30;56451;44.804;20.476;2023-03-29T14:20:44;13.15;30.74
68867;SHT30;56451;44.804;20.476;2023-03-29T14:23:11;13.15;30.48
68867;SHT30;56451;44.804;20.476;2023-03-29T14:25:39;13.16;30.47
68867;SHT30;56451;44.804;20.476;2023-03-29T14:28:26;13.16;30.51
68867;SHT30;56451;44.804;20.476;2023-03-29T14:30:54;13.09;30.57
68867;SHT30;56451;44.804;20.476;2023-03-29T14:33:28;13.06;30.87
68867;SHT30;56451;44.804;20.476;2023-03-29T14:35:58;13.14;31.03
68867;SHT30;56451;44.804;20.476;2023-03-29T14:38:26;13.27;30.85
68867;SHT30;56451;44.804;20.476;2023-03-29T14:40:56;13.45;31.20
68867;SHT30;56451;44.804;20.476;2023-03-29T14:43:22;13.59;30.34
68867;SHT30;56451;44.804;20.476;2023-03-29T14:45:49;13.71;29.86
68867;SHT30;56451;44.804;20.476;2023-03-29T14:48:15;13.77;29.55
68867;SHT30;56451;44.804;20.476;2023-03-29T14:50:43;13.77;29.68
68867;SHT30;56451;44.804;20.476;2023-03-29T14:53:17;13.78;29.68
68867;SHT30;56451;44.804;20.476;2023-03-29T14:55:47;13.77;29.62
68867;SHT30;56451;44.804;20.476;2023-03-29T14:58:19;13.74;29.71
68867;SHT30;56451;44.804;20.476;2023-03-29T15:00:48;13.74;29.73
68867;SHT30;56451;44.804;20.476;2023-03-29T15:03:15;13.76;30.21
68867;SHT30;56451;44.804;20.476;2023-03-29T15:05:45;13.67;29.88
68867;SHT30;56451;44.804;20.476;2023-03-29T15:08:32;13.71;30.21
68867;SHT30;56451;44.804;20.476;2023-03-29T15:10:59;13.69;29.88
68867;SHT30;56451;44.804;20.476;2023-03-29T15:13:26;13.66;29.90
68867;SHT30;56451;44.804;20.476;2023-03-29T15:15:56;13.66;29.88
68867;SHT30;56451;44.804;20.476;2023-03-29T15:18:30;13.64;29.81
68867;SHT30;56451;44.804;20.476;2023-03-29T15:20:58;13.47;29.90
68867;SHT30;56451;44.804;20.476;2023-03-29T15:23:24;13.32;30.34
68867;SHT30;56451;44.804;20.476;2023-03-29T15:25:56;13.38;30.40
68867;SHT30;56451;44.804;20.476;2023-03-29T15:28:31;13.39;30.68
68867;SHT30;56451;44.804;20.476;2023-03-29T15:31:08;13.38;30.49
68867;SHT30;56451;44.804;20.476;2023-03-29T15:33:37;13.43;30.52
68867;SHT30;56451;44.804;20.476;2023-03-29T15:36:04;13.45;30.40
68867;SHT30;56451;44.804;20.476;2023-03-29T15:38:31;13.50;30.07
68867;SHT30;56451;44.804;20.476;2023-03-29T15:40:59;13.49;30.11
68867;SHT30;56451;44.804;20.476;2023-03-29T15:43:26;13.46;30.10
68867;SHT30;56451;44.804;20.476;2023-03-29T15:45:52;13.36;30.22
68867;SHT30;56451;44.804;20.476;2023-03-29T15:48:23;13.20;30.74
68867;SHT30;56451;44.804;20.476;2023-03-29T15:50:49;13.02;30.77
68867;SHT30;56451;44.804;20.476;2023-03-29T15:53:15;12.89;31.00
68867;SHT30;56451;44.804;20.476;2023-03-29T15:55:44;12.87;31.22
68867;SHT30;56451;44.804;20.476;2023-03-29T15:58:16;12.88;31.32
68867;SHT30;56451;44.804;20.476;2023-03-29T16:00:48;12.85;31.37
68867;SHT30;56451;44.804;20.476;2023-03-29T16:03:16;12.89;31.22
68867;SHT30;56451;44.804;20.476;2023-03-29T16:05:43;12.85;31.35
68867;SHT30;56451;44.804;20.476;2023-03-29T16:08:10;12.77;31.49
68867;SHT30;56451;44.804;20.476;2023-03-29T16:10:37;12.77;31.67
68867;SHT30;56451;44.804;20.476;2023-03-29T16:13:03;12.81;31.78
68867;SHT30;56451;44.804;20.476;2023-03-29T16:15:29;12.84;31.74
68867;SHT30;56451;44.804;20.476;2023-03-29T16:17:56;12.88;32.01
68867;SHT30;56451;44.804;20.476;2023-03-29T16:20:22;12.87;32.02
68867;SHT30;56451;44.804;20.476;2023-03-29T16:22:49;12.94;31.99
68867;SHT30;56451;44.804;20.476;2023-03-29T16:25:18;12.88;32.08
68867;SHT30;56451;44.804;20.476;2023-03-29T16:27:47;12.85;32.43
68867;SHT30;56451;44.804;20.476;2023-03-29T16:30:14;12.80;33.14
68867;SHT30;56451;44.804;20.476;2023-03-29T16:32:41;12.76;33.55
68867;SHT30;56451;44.804;20.476;2023-03-29T16:35:19;12.71;33.75
68867;SHT30;56451;44.804;20.476;2023-03-29T16:37:46;12.68;33.57
68867;SHT30;56451;44.804;20.476;2023-03-29T16:40:12;12.68;33.80
68867;SHT30;56451;44.804;20.476;2023-03-29T16:42:38;12.68;33.65
68867;SHT30;56451;44.804;20.476;2023-03-29T16:45:05;12.67;33.50
68867;SHT30;56451;44.804;20.476;2023-03-29T16:47:32;12.65;33.38
68867;SHT30;56451;44.804;20.476;2023-03-29T16:49:58;12.65;33.53
68867;SHT30;56451;44.804;20.476;2023-03-29T16:52:24;12.60;33.41
68867;SHT30;56451;44.804;20.476;2023-03-29T16:54:50;12.53;33.68
68867;SHT30;56451;44.804;20.476;2023-03-29T16:57:17;12.49;33.75
68867;SHT30;56451;44.804;20.476;2023-03-29T16:59:43;12.46;33.69
68867;SHT30;56451;44.804;20.476;2023-03-29T17:02:12;12.46;33.66
68867;SHT30;56451;44.804;20.476;2023-03-29T17:04:38;12.43;33.69
68867;SHT30;56451;44.804;20.476;2023-03-29T17:07:04;12.44;33.81
68867;SHT30;56451;44.804;20.476;2023-03-29T17:09:30;12.44;33.89
68867;SHT30;56451;44.804;20.476;2023-03-29T17:11:57;12.41;33.83
68867;SHT30;56451;44.804;20.476;2023-03-29T17:14:22;12.39;33.81
68867;SHT30;56451;44.804;20.476;2023-03-29T17:16:51;12.33;33.86
68867;SHT30;56451;44.804;20.476;2023-03-29T17:19:17;12.28;34.01
68867;SHT30;56451;44.804;20.476;2023-03-29T17:21:43;12.20;34.22